sensor_id;sensor_type;location;lat;lon;timestamp;P1;durP1;ratioP1;P2;durP2;ratioP2
26864;SDS011;40618;51.166;10.322;2023-08-20T00:01:25;3.83;;;3.40;;
26864;SDS011;40618;51.166;10.322;2023-08-20T00:03:52;4.07;;;3.47;;
26864;SDS011;40618;51.166;10.322;2023-08-20T00:06:22;7.50;;;3.60;;
26864;SDS011;40618;51.166;10.322;2023-08-20T00:08:48;9.30;;;3.28;;
26864;SDS011;40618;51.166;10.322;2023-08-20T00:11:14;4.00;;;3.60;;
26864;SDS011;40618;51.166;10.322;2023-08-20T00:13:41;5.93;;;3.78;;
26864;SDS011;40618;51.166;10.322;2023-08-20T00:16:07;6.18;;;3.75;;
26864;SDS011;40618;51.166;10.322;2023-08-20T00:18:34;8.13;;;3.30;;
26864;SDS011;40618;51.166;10.322;2023-08-20T00:21:00;5.00;;;3.10;;
26864;SDS011;40618;51.166;10.322;2023-08-20T00:23:26;7.55;;;3.53;;
26864;SDS011;40618;51.166;10.322;2023-08-20T00:25:52;3.58;;;3.28;;
26864;SDS011;40618;51.166;10.322;2023-08-20T00:28:19;3.95;;;3.28;;
26864;SDS011;40618;51.166;10.322;2023-08-20T00:30:45;4.57;;;3.38;;
26864;SDS011;40618;51.166;10.322;2023-08-20T00:33:15;3.58;;;3.00;;
26864;SDS011;40618;51.166;10.322;2023-08-20T00:35:40;6.25;;;3.20;;
26864;SDS011;40618;51.166;10.322;2023-08-20T00:38:06;7.38;;;3.50;;
26864;SDS011;40618;51.166;10.322;2023-08-20T00:40:32;5.40;;;3.95;;
26864;SDS011;40618;51.166;10.322;2023-08-20T00:42:58;5.97;;;3.40;;
26864;SDS011;40618;51.166;10.322;2023-08-20T00:45:24;6.93;;;3.75;;
26864;SDS011;40618;51.166;10.322;2023-08-20T00:47:50;4.10;;;3.70;;
26864;SDS011;40618;51.166;10.322;2023-08-20T00:50:17;5.93;;;3.53;;
26864;SDS011;40618;51.166;10.322;2023-08-20T00:52:45;6.05;;;3.88;;
26864;SDS011;40618;51.166;10.322;2023-08-20T00:55:12;3.92;;;3.53;;
26864;SDS011;40618;51.166;10.322;2023-08-20T00:57:40;6.03;;;3.65;;
26864;SDS011;40618;51.166;10.322;2023-08-20T01:00:07;4.43;;;3.70;;
26864;SDS011;40618;51.166;10.322;2023-08-20T01:02:36;4.85;;;3.63;;
26864;SDS011;40618;51.166;10.322;2023-08-20T01:05:03;4.95;;;3.58;;
26864;SDS011;40618;51.166;10.322;2023-08-20T01:10:40;6.22;;;4.05;;
26864;SDS011;40618;51.166;10.322;2023-08-20T01:13:40;8.02;;;3.70;;
26864;SDS011;40618;51.166;10.322;2023-08-20T01:16:08;7.88;;;3.58;;
26864;SDS011;40618;51.166;10.322;2023-08-20T01:18:34;7.45;;;4.18;;
26864;SDS011;40618;51.166;10.322;2023-08-20T01:21:04;6.32;;;4.20;;
26864;SDS011;40618;51.166;10.322;2023-08-20T01:29:31;4.70;;;3.35;;
26864;SDS011;40618;51.166;10.322;2023-08-20T01:31:58;5.57;;;3.70;;
26864;SDS011;40618;51.166;10.322;2023-08-20T01:34:24;8.07;;;4.40;;
26864;SDS011;40618;51.166;10.322;2023-08-20T01:36:51;4.32;;;3.55;;
26864;SDS011;40618;51.166;10.322;2023-08-20T01:39:17;4.18;;;3.78;;
26864;SDS011;40618;51.166;10.322;2023-08-20T01:41:43;5.25;;;3.95;;
26864;SDS011;40618;51.166;10.322;2023-08-20T01:44:09;5.25;;;4.18;;
26864;SDS011;40618;51.166;10.322;2023-08-20T01:46:35;6.72;;;3.78;;
26864;SDS011;40618;51.166;10.322;2023-08-20T01:49:01;4.90;;;3.85;;
26864;SDS011;40618;51.166;10.322;2023-08-20T01:51:28;8.45;;;3.92;;
26864;SDS011;40618;51.166;10.322;2023-08-20T01:53:54;5.93;;;3.53;;
26864;SDS011;40618;51.166;10.322;2023-08-20T01:56:19;6.95;;;4.40;;
26864;SDS011;40618;51.166;10.322;2023-08-20T01:58:45;4.55;;;3.80;;
26864;SDS011;40618;51.166;10.322;2023-08-20T02:01:11;5.03;;;4.10;;
26864;SDS011;40618;51.166;10.322;2023-08-20T02:03:36;4.80;;;4.15;;
26864;SDS011;40618;51.166;10.322;2023-08-20T02:06:03;7.40;;;4.30;;
26864;SDS011;40618;51.166;10.322;2023-08-20T02:08:29;6.07;;;3.80;;
26864;SDS011;40618;51.166;10.322;2023-08-20T02:11:03;4.93;;;3.90;;
26864;SDS011;40618;51.166;10.322;2023-08-20T02:13:30;5.32;;;3.58;;
26864;SDS011;40618;51.166;10.322;2023-08-20T02:15:59;5.60;;;4.05;;
26864;SDS011;40618;51.166;10.322;2023-08-20T02:18:29;4.97;;;4.15;;
26864;SDS011;40618;51.166;10.322;2023-08-20T02:20:56;4.53;;;4.13;;
26864;SDS011;40618;51.166;10.322;2023-08-20T02:23:22;4.35;;;3.95;;
26864;SDS011;40618;51.166;10.322;2023-08-20T02:25:48;4.30;;;3.90;;
26864;SDS011;40618;51.166;10.322;2023-08-20T02:28:14;5.55;;;4.47;;
26864;SDS011;40618;51.166;10.322;2023-08-20T02:30:45;7.13;;;4.38;;
26864;SDS011;40618;51.166;10.322;2023-08-20T02:33:12;5.28;;;3.80;;
26864;SDS011;40618;51.166;10.322;2023-08-20T02:35:38;5.70;;;4.53;;
26864;SDS011;40618;51.166;10.322;2023-08-20T02:38:04;6.30;;;4.10;;
26864;SDS011;40618;51.166;10.322;2023-08-20T02:40:31;5.95;;;4.43;;
26864;SDS011;40618;51.166;10.322;2023-08-20T02:42:57;5.63;;;3.88;;
26864;SDS011;40618;51.166;10.322;2023-08-20T02:45:23;6.13;;;4.47;;
26864;SDS011;40618;51.166;10.322;2023-08-20T02:47:49;4.75;;;4.20;;
26864;SDS011;40618;51.166;10.322;2023-08-20T02:50:15;4.63;;;4.20;;
26864;SDS011;40618;51.166;10.322;2023-08-20T02:52:42;4.95;;;4.30;;
26864;SDS011;40618;51.166;10.322;2023-08-20T02:55:08;6.10;;;4.25;;
26864;SDS011;40618;51.166;10.322;2023-08-20T02:57:34;5.35;;;4.25;;
26864;SDS011;40618;51.166;10.322;2023-08-20T02:59:59;9.50;;;4.65;;
26864;SDS011;40618;51.166;10.322;2023-08-20T03:02:25;6.25;;;4.35;;
26864;SDS011;40618;51.166;10.322;2023-08-20T03:04:51;5.82;;;4.03;;
26864;SDS011;40618;51.166;10.322;2023-08-20T03:07:18;4.65;;;4.18;;
26864;SDS011;40618;51.166;10.322;2023-08-20T03:09:43;6.15;;;4.43;;
26864;SDS011;40618;51.166;10.322;2023-08-20T03:12:09;5.70;;;4.07;;
26864;SDS011;40618;51.166;10.322;2023-08-20T03:14:37;5.22;;;4.50;;
26864;SDS011;40618;51.166;10.322;2023-08-20T03:17:03;5.63;;;4.65;;
26864;SDS011;40618;51.166;10.322;2023-08-20T03:19:32;7.57;;;3.97;;
26864;SDS011;40618;51.166;10.322;2023-08-20T03:22:00;7.30;;;4.47;;
26864;SDS011;40618;51.166;10.322;2023-08-20T03:24:26;7.32;;;4.45;;
26864;SDS011;40618;51.166;10.322;2023-08-20T03:26:51;5.18;;;4.18;;
26864;SDS011;40618;51.166;10.322;2023-08-20T03:29:17;5.47;;;4.90;;
26864;SDS011;40618;51.166;10.322;2023-08-20T03:31:45;8.70;;;4.57;;
26864;SDS011;40618;51.166;10.322;2023-08-20T03:34:11;9.60;;;5.15;;
26864;SDS011;40618;51.166;10.322;2023-08-20T03:36:40;4.97;;;4.28;;
26864;SDS011;40618;51.166;10.322;2023-08-20T03:39:05;5.93;;;4.53;;
26864;SDS011;40618;51.166;10.322;2023-08-20T03:41:31;5.55;;;4.88;;
26864;SDS011;40618;51.166;10.322;2023-08-20T03:43:56;5.32;;;4.53;;
26864;SDS011;40618;51.166;10.322;2023-08-20T03:46:22;5.43;;;4.82;;
26864;SDS011;40618;51.166;10.322;2023-08-20T03:48:48;7.55;;;4.28;;
26864;SDS011;40618;51.166;10.322;2023-08-20T03:51:14;5.57;;;4.78;;
26864;SDS011;40618;51.166;10.322;2023-08-20T03:53:39;6.40;;;4.80;;
26864;SDS011;40618;51.166;10.322;2023-08-20T03:56:05;6.30;;;4.25;;
26864;SDS011;40618;51.166;10.322;2023-08-20T03:58:31;6.70;;;4.10;;
26864;SDS011;40618;51.166;10.322;2023-08-20T04:00:56;5.60;;;4.40;;
26864;SDS011;40618;51.166;10.322;2023-08-20T04:03:22;4.35;;;3.95;;
26864;SDS011;40618;51.166;10.322;2023-08-20T04:05:49;6.32;;;4.30;;
26864;SDS011;40618;51.166;10.322;2023-08-20T04:08:15;8.30;;;4.90;;
26864;SDS011;40618;51.166;10.322;2023-08-20T04:10:43;5.00;;;4.50;;
26864;SDS011;40618;51.166;10.322;2023-08-20T04:13:10;9.15;;;4.60;;
26864;SDS011;40618;51.166;10.322;2023-08-20T04:15:36;5.60;;;4.78;;
26864;SDS011;40618;51.166;10.322;2023-08-20T04:18:02;7.60;;;4.88;;
26864;SDS011;40618;51.166;10.322;2023-08-20T04:20:28;6.25;;;4.80;;
26864;SDS011;40618;51.166;10.322;2023-08-20T04:22:54;10.18;;;5.63;;
26864;SDS011;40618;51.166;10.322;2023-08-20T04:25:19;6.18;;;5.13;;
26864;SDS011;40618;51.166;10.322;2023-08-20T04:27:45;5.72;;;5.13;;
26864;SDS011;40618;51.166;10.322;2023-08-20T04:30:11;7.28;;;5.30;;
26864;SDS011;40618;51.166;10.322;2023-08-20T04:32:37;7.22;;;4.82;;
26864;SDS011;40618;51.166;10.322;2023-08-20T04:35:03;5.47;;;4.28;;
26864;SDS011;40618;51.166;10.322;2023-08-20T04:37:29;6.90;;;5.18;;
26864;SDS011;40618;51.166;10.322;2023-08-20T04:40:00;6.25;;;5.38;;
26864;SDS011;40618;51.166;10.322;2023-08-20T04:42:29;10.57;;;6.25;;
26864;SDS011;40618;51.166;10.322;2023-08-20T04:44:57;7.05;;;6.35;;
26864;SDS011;40618;51.166;10.322;2023-08-20T04:47:22;6.55;;;5.95;;
26864;SDS011;40618;51.166;10.322;2023-08-20T04:49:48;7.63;;;6.22;;
26864;SDS011;40618;51.166;10.322;2023-08-20T04:52:14;9.80;;;5.60;;
26864;SDS011;40618;51.166;10.322;2023-08-20T04:54:40;8.38;;;6.47;;
26864;SDS011;40618;51.166;10.322;2023-08-20T04:57:05;8.52;;;6.90;;
26864;SDS011;40618;51.166;10.322;2023-08-20T04:59:31;8.32;;;5.97;;
26864;SDS011;40618;51.166;10.322;2023-08-20T05:01:56;9.45;;;6.28;;
26864;SDS011;40618;51.166;10.322;2023-08-20T05:04:22;7.13;;;5.88;;
26864;SDS011;40618;51.166;10.322;2023-08-20T05:06:48;7.03;;;6.32;;
26864;SDS011;40618;51.166;10.322;2023-08-20T05:09:14;6.25;;;5.65;;
26864;SDS011;40618;51.166;10.322;2023-08-20T05:11:41;8.30;;;6.03;;
26864;SDS011;40618;51.166;10.322;2023-08-20T05:14:07;7.03;;;6.32;;
26864;SDS011;40618;51.166;10.322;2023-08-20T05:16:32;7.32;;;6.38;;
26864;SDS011;40618;51.166;10.322;2023-08-20T05:18:58;9.60;;;6.95;;
26864;SDS011;40618;51.166;10.322;2023-08-20T05:21:24;8.65;;;6.78;;
26864;SDS011;40618;51.166;10.322;2023-08-20T05:23:49;7.30;;;6.60;;
26864;SDS011;40618;51.166;10.322;2023-08-20T05:26:15;9.52;;;7.60;;
26864;SDS011;40618;51.166;10.322;2023-08-20T05:28:41;7.88;;;7.07;;
26864;SDS011;40618;51.166;10.322;2023-08-20T05:31:06;8.25;;;6.75;;
26864;SDS011;40618;51.166;10.322;2023-08-20T05:33:32;9.13;;;6.50;;
26864;SDS011;40618;51.166;10.322;2023-08-20T05:35:59;9.15;;;6.78;;
26864;SDS011;40618;51.166;10.322;2023-08-20T05:38:25;8.05;;;7.07;;
26864;SDS011;40618;51.166;10.322;2023-08-20T05:40:51;11.63;;;8.45;;
26864;SDS011;40618;51.166;10.322;2023-08-20T05:43:16;9.82;;;8.07;;
26864;SDS011;40618;51.166;10.322;2023-08-20T05:45:42;10.10;;;8.07;;
26864;SDS011;40618;51.166;10.322;2023-08-20T05:48:08;9.43;;;8.48;;
26864;SDS011;40618;51.166;10.322;2023-08-20T05:50:33;16.15;;;8.70;;
26864;SDS011;40618;51.166;10.322;2023-08-20T05:53:00;12.18;;;8.15;;
26864;SDS011;40618;51.166;10.322;2023-08-20T05:55:26;9.52;;;8.45;;
26864;SDS011;40618;51.166;10.322;2023-08-20T05:57:52;10.27;;;8.70;;
26864;SDS011;40618;51.166;10.322;2023-08-20T06:00:17;10.15;;;7.80;;
26864;SDS011;40618;51.166;10.322;2023-08-20T06:02:43;8.85;;;8.02;;
26864;SDS011;40618;51.166;10.322;2023-08-20T06:05:09;12.50;;;8.77;;
26864;SDS011;40618;51.166;10.322;2023-08-20T06:07:35;10.48;;;8.63;;
26864;SDS011;40618;51.166;10.322;2023-08-20T06:10:01;9.20;;;8.25;;
26864;SDS011;40618;51.166;10.322;2023-08-20T06:12:27;9.85;;;8.85;;
26864;SDS011;40618;51.166;10.322;2023-08-20T06:14:53;9.52;;;8.52;;
26864;SDS011;40618;51.166;10.322;2023-08-20T06:17:19;13.98;;;9.07;;
26864;SDS011;40618;51.166;10.322;2023-08-20T06:19:44;9.15;;;8.25;;
26864;SDS011;40618;51.166;10.322;2023-08-20T06:22:10;10.43;;;9.10;;
26864;SDS011;40618;51.166;10.322;2023-08-20T06:24:36;10.15;;;8.68;;
26864;SDS011;40618;51.166;10.322;2023-08-20T06:27:01;10.63;;;8.27;;
26864;SDS011;40618;51.166;10.322;2023-08-20T06:29:27;9.60;;;8.60;;
26864;SDS011;40618;51.166;10.322;2023-08-20T06:31:53;10.02;;;7.93;;
26864;SDS011;40618;51.166;10.322;2023-08-20T06:34:18;10.73;;;8.23;;
26864;SDS011;40618;51.166;10.322;2023-08-20T06:36:44;9.73;;;7.60;;
26864;SDS011;40618;51.166;10.322;2023-08-20T06:39:10;8.68;;;7.75;;
26864;SDS011;40618;51.166;10.322;2023-08-20T06:41:36;9.38;;;7.32;;
26864;SDS011;40618;51.166;10.322;2023-08-20T06:44:02;10.05;;;7.57;;
26864;SDS011;40618;51.166;10.322;2023-08-20T06:46:28;9.15;;;7.55;;
26864;SDS011;40618;51.166;10.322;2023-08-20T06:48:54;8.88;;;7.55;;
26864;SDS011;40618;51.166;10.322;2023-08-20T06:51:20;10.20;;;7.88;;
26864;SDS011;40618;51.166;10.322;2023-08-20T06:53:46;9.85;;;8.38;;
26864;SDS011;40618;51.166;10.322;2023-08-20T06:56:15;9.85;;;8.20;;
26864;SDS011;40618;51.166;10.322;2023-08-20T06:58:41;9.63;;;8.05;;
26864;SDS011;40618;51.166;10.322;2023-08-20T07:01:07;9.63;;;8.25;;
26864;SDS011;40618;51.166;10.322;2023-08-20T07:03:37;11.00;;;9.15;;
26864;SDS011;40618;51.166;10.322;2023-08-20T07:06:05;11.65;;;9.30;;
26864;SDS011;40618;51.166;10.322;2023-08-20T07:08:31;9.40;;;8.15;;
26864;SDS011;40618;51.166;10.322;2023-08-20T07:10:58;11.02;;;8.35;;
26864;SDS011;40618;51.166;10.322;2023-08-20T07:13:23;10.60;;;9.05;;
26864;SDS011;40618;51.166;10.322;2023-08-20T07:15:49;14.57;;;9.23;;
26864;SDS011;40618;51.166;10.322;2023-08-20T07:18:16;11.23;;;8.80;;
26864;SDS011;40618;51.166;10.322;2023-08-20T07:20:44;9.88;;;8.45;;
26864;SDS011;40618;51.166;10.322;2023-08-20T07:23:10;11.95;;;8.63;;
26864;SDS011;40618;51.166;10.322;2023-08-20T07:25:37;13.15;;;8.88;;
26864;SDS011;40618;51.166;10.322;2023-08-20T07:28:07;11.60;;;9.15;;
26864;SDS011;40618;51.166;10.322;2023-08-20T07:30:37;9.70;;;8.70;;
26864;SDS011;40618;51.166;10.322;2023-08-20T07:33:02;9.45;;;8.48;;
26864;SDS011;40618;51.166;10.322;2023-08-20T07:35:29;10.02;;;9.02;;
26864;SDS011;40618;51.166;10.322;2023-08-20T07:37:55;11.18;;;9.30;;
26864;SDS011;40618;51.166;10.322;2023-08-20T07:40:20;9.50;;;8.32;;
26864;SDS011;40618;51.166;10.322;2023-08-20T07:42:46;8.57;;;7.72;;
26864;SDS011;40618;51.166;10.322;2023-08-20T07:45:12;9.27;;;8.32;;
26864;SDS011;40618;51.166;10.322;2023-08-20T07:47:38;12.32;;;8.57;;
26864;SDS011;40618;51.166;10.322;2023-08-20T07:50:04;10.18;;;9.18;;
26864;SDS011;40618;51.166;10.322;2023-08-20T07:52:31;11.05;;;9.05;;
26864;SDS011;40618;51.166;10.322;2023-08-20T07:54:57;11.45;;;8.88;;
26864;SDS011;40618;51.166;10.322;2023-08-20T07:57:24;9.63;;;8.55;;
26864;SDS011;40618;51.166;10.322;2023-08-20T07:59:50;11.75;;;8.98;;
26864;SDS011;40618;51.166;10.322;2023-08-20T08:02:18;10.05;;;8.57;;
26864;SDS011;40618;51.166;10.322;2023-08-20T08:04:44;9.52;;;8.00;;
26864;SDS011;40618;51.166;10.322;2023-08-20T08:07:10;9.00;;;8.15;;
26864;SDS011;40618;51.166;10.322;2023-08-20T08:09:36;11.18;;;8.45;;
26864;SDS011;40618;51.166;10.322;2023-08-20T08:12:02;10.05;;;7.88;;
26864;SDS011;40618;51.166;10.322;2023-08-20T08:14:30;9.60;;;7.65;;
26864;SDS011;40618;51.166;10.322;2023-08-20T08:16:56;9.75;;;8.13;;
26864;SDS011;40618;51.166;10.322;2023-08-20T08:19:22;9.77;;;8.57;;
26864;SDS011;40618;51.166;10.322;2023-08-20T08:21:48;9.95;;;7.35;;
26864;SDS011;40618;51.166;10.322;2023-08-20T08:24:17;8.80;;;7.80;;
26864;SDS011;40618;51.166;10.322;2023-08-20T08:26:43;8.85;;;7.95;;
26864;SDS011;40618;51.166;10.322;2023-08-20T08:29:10;13.57;;;8.40;;
26864;SDS011;40618;51.166;10.322;2023-08-20T08:31:38;10.80;;;7.88;;
26864;SDS011;40618;51.166;10.322;2023-08-20T08:34:04;11.40;;;7.57;;
26864;SDS011;40618;51.166;10.322;2023-08-20T08:36:29;8.07;;;6.72;;
26864;SDS011;40618;51.166;10.322;2023-08-20T08:38:55;8.38;;;7.57;;
26864;SDS011;40618;51.166;10.322;2023-08-20T08:41:22;9.10;;;8.05;;
26864;SDS011;40618;51.166;10.322;2023-08-20T08:43:51;8.70;;;7.80;;
26864;SDS011;40618;51.166;10.322;2023-08-20T08:46:17;9.60;;;7.65;;
26864;SDS011;40618;51.166;10.322;2023-08-20T08:48:43;11.40;;;7.95;;
26864;SDS011;40618;51.166;10.322;2023-08-20T08:51:12;8.75;;;7.82;;
26864;SDS011;40618;51.166;10.322;2023-08-20T08:53:38;10.05;;;7.82;;
26864;SDS011;40618;51.166;10.322;2023-08-20T08:56:04;11.30;;;7.93;;
26864;SDS011;40618;51.166;10.322;2023-08-20T08:58:32;8.85;;;7.95;;
26864;SDS011;40618;51.166;10.322;2023-08-20T09:00:58;10.00;;;8.93;;
26864;SDS011;40618;51.166;10.322;2023-08-20T09:03:24;10.60;;;8.70;;
26864;SDS011;40618;51.166;10.322;2023-08-20T09:05:54;10.20;;;7.57;;
26864;SDS011;40618;51.166;10.322;2023-08-20T09:08:28;9.68;;;8.05;;
26864;SDS011;40618;51.166;10.322;2023-08-20T09:10:56;10.45;;;7.95;;
26864;SDS011;40618;51.166;10.322;2023-08-20T09:13:24;8.73;;;7.57;;
26864;SDS011;40618;51.166;10.322;2023-08-20T09:16:04;8.88;;;7.97;;
26864;SDS011;40618;51.166;10.322;2023-08-20T09:18:32;8.90;;;7.70;;
26864;SDS011;40618;51.166;10.322;2023-08-20T09:21:10;8.45;;;7.60;;
26864;SDS011;40618;51.166;10.322;2023-08-20T09:23:38;8.48;;;7.40;;
26864;SDS011;40618;51.166;10.322;2023-08-20T09:26:05;10.48;;;7.50;;
26864;SDS011;40618;51.166;10.322;2023-08-20T09:28:42;8.77;;;6.85;;
26864;SDS011;40618;51.166;10.322;2023-08-20T09:31:10;9.20;;;7.20;;
26864;SDS011;40618;51.166;10.322;2023-08-20T09:33:43;7.63;;;6.85;;
26864;SDS011;40618;51.166;10.322;2023-08-20T09:36:17;7.88;;;7.10;;
26864;SDS011;40618;51.166;10.322;2023-08-20T09:38:44;8.00;;;6.95;;
26864;SDS011;40618;51.166;10.322;2023-08-20T09:41:10;9.82;;;6.93;;
26864;SDS011;40618;51.166;10.322;2023-08-20T09:43:40;7.20;;;6.47;;
26864;SDS011;40618;51.166;10.322;2023-08-20T09:48:35;9.35;;;6.18;;
26864;SDS011;40618;51.166;10.322;2023-08-20T09:51:09;8.55;;;7.40;;
26864;SDS011;40618;51.166;10.322;2023-08-20T09:54:23;9.98;;;7.55;;
26864;SDS011;40618;51.166;10.322;2023-08-20T09:56:37;11.60;;;7.57;;
26864;SDS011;40618;51.166;10.322;2023-08-20T09:59:04;12.13;;;7.20;;
26864;SDS011;40618;51.166;10.322;2023-08-20T10:01:31;8.52;;;7.50;;
26864;SDS011;40618;51.166;10.322;2023-08-20T10:03:58;9.32;;;7.43;;
26864;SDS011;40618;51.166;10.322;2023-08-20T10:06:24;8.45;;;7.13;;
26864;SDS011;40618;51.166;10.322;2023-08-20T10:08:51;8.63;;;7.63;;
26864;SDS011;40618;51.166;10.322;2023-08-20T10:11:18;10.23;;;8.48;;
26864;SDS011;40618;51.166;10.322;2023-08-20T10:13:44;9.68;;;7.78;;
26864;SDS011;40618;51.166;10.322;2023-08-20T10:16:11;15.00;;;8.50;;
26864;SDS011;40618;51.166;10.322;2023-08-20T10:18:38;10.30;;;8.38;;
26864;SDS011;40618;51.166;10.322;2023-08-20T10:21:04;9.13;;;8.13;;
26864;SDS011;40618;51.166;10.322;2023-08-20T10:23:32;11.25;;;8.38;;
26864;SDS011;40618;51.166;10.322;2023-08-20T10:26:08;9.27;;;8.38;;
26864;SDS011;40618;51.166;10.322;2023-08-20T10:28:35;9.43;;;8.48;;
26864;SDS011;40618;51.166;10.322;2023-08-20T10:31:05;10.35;;;7.88;;
26864;SDS011;40618;51.166;10.322;2023-08-20T10:36:16;12.05;;;7.47;;
26864;SDS011;40618;51.166;10.322;2023-08-20T10:38:47;10.13;;;8.40;;
26864;SDS011;40618;51.166;10.322;2023-08-20T10:41:15;10.68;;;7.97;;
26864;SDS011;40618;51.166;10.322;2023-08-20T10:43:47;12.68;;;8.02;;
26864;SDS011;40618;51.166;10.322;2023-08-20T10:46:21;9.80;;;7.72;;
26864;SDS011;40618;51.166;10.322;2023-08-20T10:48:52;8.95;;;8.05;;
26864;SDS011;40618;51.166;10.322;2023-08-20T10:51:54;9.05;;;7.45;;
26864;SDS011;40618;51.166;10.322;2023-08-20T10:54:13;11.95;;;7.82;;
26864;SDS011;40618;51.166;10.322;2023-08-20T10:56:43;8.57;;;7.30;;
26864;SDS011;40618;51.166;10.322;2023-08-20T11:01:45;11.70;;;8.18;;
26864;SDS011;40618;51.166;10.322;2023-08-20T11:04:13;11.82;;;7.75;;
26864;SDS011;40618;51.166;10.322;2023-08-20T11:06:41;9.57;;;8.13;;
26864;SDS011;40618;51.166;10.322;2023-08-20T11:09:07;10.15;;;7.78;;
26864;SDS011;40618;51.166;10.322;2023-08-20T11:11:32;10.77;;;7.88;;
26864;SDS011;40618;51.166;10.322;2023-08-20T11:14:05;11.90;;;8.25;;
26864;SDS011;40618;51.166;10.322;2023-08-20T11:16:34;10.98;;;8.02;;
26864;SDS011;40618;51.166;10.322;2023-08-20T11:19:01;9.23;;;7.20;;
26864;SDS011;40618;51.166;10.322;2023-08-20T11:21:30;10.05;;;8.15;;
26864;SDS011;40618;51.166;10.322;2023-08-20T11:23:57;9.90;;;8.10;;
26864;SDS011;40618;51.166;10.322;2023-08-20T11:26:24;12.75;;;8.82;;
26864;SDS011;40618;51.166;10.322;2023-08-20T11:28:50;11.25;;;9.18;;
26864;SDS011;40618;51.166;10.322;2023-08-20T11:31:15;10.32;;;8.63;;
26864;SDS011;40618;51.166;10.322;2023-08-20T11:33:41;10.52;;;8.68;;
26864;SDS011;40618;51.166;10.322;2023-08-20T11:36:07;10.15;;;7.70;;
26864;SDS011;40618;51.166;10.322;2023-08-20T11:38:32;11.60;;;9.25;;
26864;SDS011;40618;51.166;10.322;2023-08-20T11:40:58;9.80;;;8.68;;
26864;SDS011;40618;51.166;10.322;2023-08-20T11:43:26;13.25;;;9.35;;
26864;SDS011;40618;51.166;10.322;2023-08-20T11:45:53;13.20;;;9.18;;
26864;SDS011;40618;51.166;10.322;2023-08-20T11:48:19;12.60;;;8.85;;
26864;SDS011;40618;51.166;10.322;2023-08-20T11:50:46;11.02;;;9.60;;
26864;SDS011;40618;51.166;10.322;2023-08-20T11:53:12;9.45;;;8.48;;
26864;SDS011;40618;51.166;10.322;2023-08-20T11:55:39;12.32;;;8.70;;
26864;SDS011;40618;51.166;10.322;2023-08-20T12:00:37;11.00;;;8.02;;
26864;SDS011;40618;51.166;10.322;2023-08-20T12:03:03;10.70;;;9.20;;
26864;SDS011;40618;51.166;10.322;2023-08-20T12:05:30;8.98;;;8.07;;
26864;SDS011;40618;51.166;10.322;2023-08-20T12:08:00;10.70;;;8.90;;
26864;SDS011;40618;51.166;10.322;2023-08-20T12:10:28;12.25;;;8.68;;
26864;SDS011;40618;51.166;10.322;2023-08-20T12:12:58;9.32;;;8.27;;
26864;SDS011;40618;51.166;10.322;2023-08-20T12:15:24;9.45;;;8.48;;
26864;SDS011;40618;51.166;10.322;2023-08-20T12:20:27;10.27;;;8.73;;
26864;SDS011;40618;51.166;10.322;2023-08-20T12:22:55;9.75;;;8.85;;
26864;SDS011;40618;51.166;10.322;2023-08-20T12:25:26;9.40;;;7.47;;
26864;SDS011;40618;51.166;10.322;2023-08-20T12:27:54;8.68;;;7.57;;
26864;SDS011;40618;51.166;10.322;2023-08-20T12:30:21;10.63;;;8.15;;
26864;SDS011;40618;51.166;10.322;2023-08-20T12:32:47;9.30;;;8.25;;
26864;SDS011;40618;51.166;10.322;2023-08-20T12:35:13;10.02;;;7.97;;
26864;SDS011;40618;51.166;10.322;2023-08-20T12:37:38;10.68;;;9.15;;
26864;SDS011;40618;51.166;10.322;2023-08-20T12:40:04;10.85;;;8.45;;
26864;SDS011;40618;51.166;10.322;2023-08-20T12:42:35;10.07;;;8.57;;
26864;SDS011;40618;51.166;10.322;2023-08-20T12:45:04;8.77;;;7.88;;
26864;SDS011;40618;51.166;10.322;2023-08-20T12:47:32;8.63;;;7.72;;
26864;SDS011;40618;51.166;10.322;2023-08-20T12:49:59;9.45;;;8.32;;
26864;SDS011;40618;51.166;10.322;2023-08-20T12:52:24;11.30;;;8.40;;
26864;SDS011;40618;51.166;10.322;2023-08-20T12:54:50;9.82;;;8.13;;
26864;SDS011;40618;51.166;10.322;2023-08-20T12:57:15;9.30;;;8.18;;
26864;SDS011;40618;51.166;10.322;2023-08-20T12:59:41;9.00;;;8.13;;
26864;SDS011;40618;51.166;10.322;2023-08-20T13:02:07;10.57;;;7.55;;
26864;SDS011;40618;51.166;10.322;2023-08-20T13:04:33;13.15;;;8.35;;
26864;SDS011;40618;51.166;10.322;2023-08-20T13:06:59;8.10;;;7.28;;
26864;SDS011;40618;51.166;10.322;2023-08-20T13:09:26;7.97;;;6.90;;
26864;SDS011;40618;51.166;10.322;2023-08-20T13:11:53;8.30;;;7.53;;
26864;SDS011;40618;51.166;10.322;2023-08-20T13:14:22;8.70;;;7.50;;
26864;SDS011;40618;51.166;10.322;2023-08-20T13:16:48;9.20;;;8.23;;
26864;SDS011;40618;51.166;10.322;2023-08-20T13:19:14;9.02;;;7.75;;
26864;SDS011;40618;51.166;10.322;2023-08-20T13:21:40;9.20;;;7.97;;
26864;SDS011;40618;51.166;10.322;2023-08-20T13:24:06;9.77;;;7.18;;
26864;SDS011;40618;51.166;10.322;2023-08-20T13:26:33;10.05;;;7.85;;
26864;SDS011;40618;51.166;10.322;2023-08-20T13:28:59;10.95;;;8.98;;
26864;SDS011;40618;51.166;10.322;2023-08-20T13:31:25;12.07;;;8.90;;
26864;SDS011;40618;51.166;10.322;2023-08-20T13:33:50;12.48;;;7.60;;
26864;SDS011;40618;51.166;10.322;2023-08-20T13:36:16;9.95;;;7.50;;
26864;SDS011;40618;51.166;10.322;2023-08-20T13:38:42;10.93;;;6.88;;
26864;SDS011;40618;51.166;10.322;2023-08-20T13:41:07;8.82;;;6.97;;
26864;SDS011;40618;51.166;10.322;2023-08-20T13:43:34;7.50;;;6.72;;
26864;SDS011;40618;51.166;10.322;2023-08-20T13:46:00;8.25;;;7.00;;
26864;SDS011;40618;51.166;10.322;2023-08-20T13:48:26;8.43;;;7.30;;
26864;SDS011;40618;51.166;10.322;2023-08-20T13:50:51;9.52;;;6.90;;
26864;SDS011;40618;51.166;10.322;2023-08-20T13:53:17;8.52;;;7.57;;
26864;SDS011;40618;51.166;10.322;2023-08-20T13:55:43;13.30;;;7.15;;
26864;SDS011;40618;51.166;10.322;2023-08-20T13:58:09;8.32;;;6.35;;
26864;SDS011;40618;51.166;10.322;2023-08-20T14:00:35;7.15;;;6.45;;
26864;SDS011;40618;51.166;10.322;2023-08-20T14:03:00;9.18;;;6.85;;
26864;SDS011;40618;51.166;10.322;2023-08-20T14:05:26;7.55;;;6.70;;
26864;SDS011;40618;51.166;10.322;2023-08-20T14:07:54;10.02;;;7.28;;
26864;SDS011;40618;51.166;10.322;2023-08-20T14:10:20;8.82;;;7.30;;
26864;SDS011;40618;51.166;10.322;2023-08-20T14:12:45;7.47;;;6.78;;
26864;SDS011;40618;51.166;10.322;2023-08-20T14:15:11;7.50;;;6.35;;
26864;SDS011;40618;51.166;10.322;2023-08-20T14:17:37;7.07;;;6.38;;
26864;SDS011;40618;51.166;10.322;2023-08-20T14:20:03;7.28;;;6.57;;
26864;SDS011;40618;51.166;10.322;2023-08-20T14:22:30;7.05;;;6.35;;
26864;SDS011;40618;51.166;10.322;2023-08-20T14:24:55;7.82;;;6.13;;
26864;SDS011;40618;51.166;10.322;2023-08-20T14:27:21;7.30;;;6.57;;
26864;SDS011;40618;51.166;10.322;2023-08-20T14:29:47;6.85;;;6.20;;
26864;SDS011;40618;51.166;10.322;2023-08-20T14:32:13;7.40;;;6.38;;
26864;SDS011;40618;51.166;10.322;2023-08-20T14:34:38;9.95;;;6.82;;
26864;SDS011;40618;51.166;10.322;2023-08-20T14:37:04;7.13;;;5.55;;
26864;SDS011;40618;51.166;10.322;2023-08-20T14:39:30;6.72;;;5.38;;
26864;SDS011;40618;51.166;10.322;2023-08-20T14:41:56;9.48;;;4.82;;
26864;SDS011;40618;51.166;10.322;2023-08-20T14:44:23;7.28;;;4.80;;
26864;SDS011;40618;51.166;10.322;2023-08-20T14:46:48;12.30;;;5.15;;
26864;SDS011;40618;51.166;10.322;2023-08-20T14:49:15;4.65;;;4.22;;
26864;SDS011;40618;51.166;10.322;2023-08-20T14:51:43;6.83;;;4.70;;